createdAt,value
2023-05-01T00:00:31.386Z,17.37
2023-05-01T00:01:37.226Z,17.37
2023-05-01T00:03:00.594Z,17.37
2023-05-01T00:04:24.060Z,17.35
2023-05-01T00:05:47.685Z,17.32
2023-05-01T00:07:11.841Z,17.32
2023-05-01T00:08:35.106Z,17.31
2023-05-01T00:09:58.214Z,17.29
2023-05-01T00:11:21.690Z,17.27
2023-05-01T00:12:45.481Z,17.26
2023-05-01T00:14:07.776Z,17.26
2023-05-01T00:15:31.095Z,17.27
2023-05-01T00:16:54.426Z,17.27
2023-05-01T00:18:17.026Z,17.28
2023-05-01T00:19:40.878Z,17.27
2023-05-01T00:21:03.320Z,17.26
2023-05-01T00:22:28.723Z,17.26
2023-05-01T00:23:51.959Z,17.27
2023-05-01T00:25:14.649Z,17.28
2023-05-01T00:26:37.853Z,17.28
2023-05-01T00:28:00.220Z,17.29
2023-05-01T00:29:23.506Z,17.29
2023-05-01T00:30:45.901Z,17.29
2023-05-01T00:32:10.468Z,17.28
2023-05-01T00:33:34.370Z,17.26
2023-05-01T00:34:57.880Z,17.28
2023-05-01T00:36:21.298Z,17.28
2023-05-01T00:37:46.480Z,17.27
2023-05-01T00:39:09.947Z,17.27
2023-05-01T00:40:32.352Z,17.26
2023-05-01T00:41:56.407Z,17.27
2023-05-01T00:43:18.933Z,17.27
2023-05-01T00:44:42.192Z,17.26
2023-05-01T00:46:04.703Z,17.27
2023-05-01T00:47:28.087Z,17.25
2023-05-01T00:48:51.137Z,17.28
2023-05-01T00:50:15.092Z,17.26
2023-05-01T00:51:37.366Z,17.27
2023-05-01T00:53:02.240Z,17.28
2023-05-01T00:54:27.737Z,17.28
2023-05-01T00:55:52.025Z,17.26
2023-05-01T00:57:15.380Z,17.28
2023-05-01T00:58:39.596Z,17.26
2023-05-01T01:00:04.082Z,17.25
2023-05-01T01:01:28.934Z,17.27
2023-05-01T01:02:52.203Z,17.28
2023-05-01T01:04:15.805Z,17.27
2023-05-01T01:05:44.281Z,17.28
2023-05-01T01:07:12.157Z,17.27
2023-05-01T01:08:41.973Z,17.28
2023-05-01T01:10:13.630Z,17.26
2023-05-01T01:11:43.459Z,17.24
2023-05-01T01:13:13.308Z,17.22
2023-05-01T01:14:43.813Z,17.22
2023-05-01T01:16:13.958Z,17.21
2023-05-01T01:17:42.742Z,17.20
2023-05-01T01:19:25.987Z,17.21
2023-05-01T01:20:56.799Z,17.17
2023-05-01T01:22:23.799Z,17.16
2023-05-01T01:24:21.014Z,17.15
2023-05-01T01:26:11.050Z,17.11
2023-05-01T01:27:57.787Z,17.11
2023-05-01T01:29:42.831Z,17.08
2023-05-01T01:31:18.924Z,17.07
2023-05-01T01:33:02.230Z,17.06
2023-05-01T01:34:33.442Z,17.05
2023-05-01T01:35:59.726Z,17.05
2023-05-01T01:37:30.281Z,17.05
2023-05-01T01:39:01.249Z,17.04
2023-05-01T01:40:31.497Z,17.05
2023-05-01T01:41:58.096Z,17.04
2023-05-01T01:43:23.071Z,17.05
2023-05-01T01:44:53.856Z,17.02
2023-05-01T01:46:18.435Z,17.02
2023-05-01T01:47:43.756Z,17.00
2023-05-01T01:49:09.744Z,17.01
2023-05-01T01:50:37.868Z,17.01
2023-05-01T01:52:04.429Z,16.99
2023-05-01T01:53:28.850Z,16.98
2023-05-01T01:54:54.744Z,16.96
2023-05-01T01:56:19.137Z,16.98
2023-05-01T01:57:46.053Z,16.98
2023-05-01T01:59:10.122Z,16.98
2023-05-01T02:00:34.577Z,16.98
2023-05-01T02:01:59.082Z,16.99
2023-05-01T02:03:25.086Z,16.98
2023-05-01T02:04:49.059Z,16.96
2023-05-01T02:05:55.947Z,16.98
2023-05-01T02:07:01.070Z,16.98
2023-05-01T02:08:06.446Z,16.99
2023-05-01T02:09:11.051Z,17.02
2023-05-01T02:10:16.277Z,17.03
2023-05-01T02:11:21.959Z,17.03
2023-05-01T02:12:27.388Z,17.04
2023-05-01T02:13:32.552Z,17.03
2023-05-01T02:14:35.978Z,17.04
2023-05-01T02:15:41.129Z,17.05
2023-05-01T02:16:46.927Z,17.05
2023-05-01T02:17:51.856Z,17.06
2023-05-01T02:18:56.813Z,17.07
2023-05-01T02:19:59.926Z,17.09
2023-05-01T02:21:05.817Z,17.10
2023-05-01T02:22:19.319Z,17.11
2023-05-01T02:23:23.312Z,17.11
2023-05-01T02:24:28.464Z,17.10
2023-05-01T02:25:35.953Z,17.10
2023-05-01T02:26:43.303Z,17.10
2023-05-01T02:27:50.057Z,17.07
2023-05-01T02:28:52.563Z,17.07
2023-05-01T02:29:56.654Z,17.07
2023-05-01T02:30:59.495Z,17.08
2023-05-01T02:32:03.143Z,17.08
2023-05-01T02:33:08.136Z,17.07
2023-05-01T02:34:12.349Z,17.04
2023-05-01T02:35:14.755Z,17.05
2023-05-01T02:36:19.682Z,17.07
2023-05-01T02:37:22.784Z,17.06
2023-05-01T02:38:26.106Z,17.05
2023-05-01T02:39:28.586Z,17.04
2023-05-01T02:40:33.084Z,17.05
2023-05-01T02:41:35.738Z,17.06
2023-05-01T02:42:41.447Z,17.05
2023-05-01T02:43:46.896Z,17.05
2023-05-01T02:44:55.352Z,17.05
2023-05-01T02:46:00.012Z,17.03
2023-05-01T02:47:04.680Z,17.01
2023-05-01T02:48:11.843Z,17.01
2023-05-01T02:49:17.081Z,17.01
2023-05-01T02:50:22.002Z,17.00
2023-05-01T02:51:27.881Z,17.00
2023-05-01T02:52:32.340Z,16.98
2023-05-01T02:53:35.223Z,16.97
2023-05-01T02:54:39.306Z,16.96
2023-05-01T02:55:43.115Z,16.95
2023-05-01T02:56:46.500Z,16.99
2023-05-01T02:57:51.899Z,16.96
2023-05-01T02:58:55.492Z,16.94
2023-05-01T02:59:58.938Z,16.95
2023-05-01T03:01:06.882Z,16.95
2023-05-01T03:02:15.584Z,16.92
2023-05-01T03:03:25.184Z,16.93
2023-05-01T03:04:36.428Z,16.91
2023-05-01T03:05:41.138Z,16.90
2023-05-01T03:06:46.418Z,16.91
2023-05-01T03:07:48.934Z,16.89
2023-05-01T03:08:52.813Z,16.90
2023-05-01T03:09:55.512Z,16.88
2023-05-01T03:10:59.053Z,16.89
2023-05-01T03:12:02.436Z,16.87
2023-05-01T03:13:05.898Z,16.87
2023-05-01T03:14:09.378Z,16.91
2023-05-01T03:15:13.400Z,16.89
2023-05-01T03:16:15.842Z,16.90
2023-05-01T03:17:19.208Z,16.91
2023-05-01T03:18:21.612Z,16.91
2023-05-01T03:19:25.557Z,16.92
2023-05-01T03:20:28.234Z,16.94
2023-05-01T03:21:32.100Z,16.92
2023-05-01T03:22:36.109Z,16.94
2023-05-01T03:23:39.511Z,16.94
2023-05-01T03:24:42.498Z,16.94
2023-05-01T03:25:45.989Z,16.92
2023-05-01T03:26:48.606Z,16.94
2023-05-01T03:27:54.239Z,16.94
2023-05-01T03:28:57.567Z,16.94
2023-05-01T03:30:00.963Z,16.94
2023-05-01T03:31:03.458Z,16.96
2023-05-01T03:32:07.352Z,16.96
2023-05-01T03:33:09.992Z,16.94
2023-05-01T03:34:13.399Z,16.93
2023-05-01T03:35:15.915Z,16.95
2023-05-01T03:36:19.886Z,16.96
2023-05-01T03:37:22.241Z,16.95
2023-05-01T03:38:27.302Z,16.94
2023-05-01T03:39:29.681Z,16.94
2023-05-01T03:40:33.387Z,16.94
2023-05-01T03:41:36.037Z,16.94
2023-05-01T03:42:39.675Z,16.93
2023-05-01T03:43:42.271Z,16.91
2023-05-01T03:44:45.626Z,16.90
2023-05-01T03:45:48.185Z,16.91
2023-05-01T03:46:52.063Z,16.93
2023-05-01T03:47:54.587Z,16.94
2023-05-01T03:48:57.963Z,16.94
2023-05-01T03:50:00.306Z,16.94
2023-05-01T03:51:04.002Z,16.95
2023-05-01T03:52:06.678Z,16.95
2023-05-01T03:53:10.090Z,16.93
2023-05-01T03:54:14.236Z,16.93
2023-05-01T03:55:17.797Z,16.94
2023-05-01T03:56:20.783Z,16.92
2023-05-01T03:57:24.399Z,16.95
2023-05-01T03:58:27.004Z,16.92
2023-05-01T03:59:30.698Z,16.92
2023-05-01T04:00:33.394Z,16.92
2023-05-01T04:01:36.995Z,16.94
2023-05-01T04:02:39.583Z,16.93
2023-05-01T04:03:43.049Z,16.93
2023-05-01T04:04:45.808Z,16.94
2023-05-01T04:05:49.613Z,16.91
2023-05-01T04:06:52.061Z,16.90
2023-05-01T04:07:55.546Z,16.92
2023-05-01T04:08:57.959Z,16.91
2023-05-01T04:10:02.739Z,16.92
2023-05-01T04:11:05.581Z,16.92
2023-05-01T04:12:08.926Z,16.93
2023-05-01T04:13:12.194Z,16.94
2023-05-01T04:14:15.482Z,16.95
2023-05-01T04:15:17.893Z,16.94
2023-05-01T04:16:21.687Z,16.96
2023-05-01T04:17:24.619Z,16.95
2023-05-01T04:18:28.197Z,16.94
2023-05-01T04:19:30.656Z,16.95
2023-05-01T04:20:34.209Z,16.95
2023-05-01T04:21:36.680Z,16.93
2023-05-01T04:22:39.987Z,16.94
2023-05-01T04:23:42.386Z,16.93
2023-05-01T04:24:45.836Z,16.93
2023-05-01T04:25:49.647Z,16.93
2023-05-01T04:26:52.991Z,16.92
2023-05-01T04:27:55.746Z,16.94
2023-05-01T04:29:00.643Z,16.95
2023-05-01T04:30:03.384Z,16.97
2023-05-01T04:31:06.964Z,16.98
2023-05-01T04:32:09.426Z,16.98
2023-05-01T04:33:13.255Z,17.00
2023-05-01T04:34:16.360Z,17.01
2023-05-01T04:35:19.878Z,17.02
2023-05-01T04:36:22.491Z,17.02
2023-05-01T04:37:25.840Z,17.03
2023-05-01T04:38:29.366Z,17.04
2023-05-01T04:39:33.007Z,17.04
2023-05-01T04:40:35.490Z,17.05
2023-05-01T04:41:46.575Z,17.06
2023-05-01T04:42:49.013Z,17.03
2023-05-01T04:43:52.536Z,17.03
2023-05-01T04:44:54.907Z,17.05
2023-05-01T04:45:58.214Z,17.04
2023-05-01T04:47:02.660Z,17.04
2023-05-01T04:48:06.973Z,17.05
2023-05-01T04:49:10.645Z,17.07
2023-05-01T04:50:13.052Z,17.08
2023-05-01T04:51:16.800Z,17.08
2023-05-01T04:52:19.602Z,17.09
2023-05-01T04:53:22.925Z,17.10
2023-05-01T04:54:25.773Z,17.10
2023-05-01T04:55:31.021Z,17.10
2023-05-01T04:56:34.152Z,17.08
2023-05-01T04:57:39.482Z,17.09
2023-05-01T04:58:42.916Z,17.06
2023-05-01T04:59:45.326Z,17.08
2023-05-01T05:00:48.608Z,17.07
2023-05-01T05:01:51.534Z,17.05
2023-05-01T05:02:54.964Z,17.06
2023-05-01T05:03:57.585Z,17.05
2023-05-01T05:05:01.031Z,17.05
2023-05-01T05:06:03.619Z,17.07
2023-05-01T05:07:07.034Z,17.05
2023-05-01T05:08:09.447Z,17.04
2023-05-01T05:09:13.061Z,17.03
2023-05-01T05:10:15.512Z,17.04
2023-05-01T05:11:19.457Z,17.05
2023-05-01T05:12:22.371Z,17.05
2023-05-01T05:13:27.619Z,17.05
2023-05-01T05:14:30.136Z,17.06
2023-05-01T05:15:33.447Z,17.06
2023-05-01T05:16:35.990Z,17.06
2023-05-01T05:17:39.375Z,17.05
2023-05-01T05:18:41.979Z,17.05
2023-05-01T05:19:45.281Z,17.06
2023-05-01T05:20:47.947Z,17.05
2023-05-01T05:21:51.835Z,17.07
2023-05-01T05:22:54.185Z,17.09
2023-05-01T05:23:57.542Z,17.09
2023-05-01T05:25:04.392Z,17.11
2023-05-01T05:26:08.279Z,17.12
2023-05-01T05:27:11.576Z,17.13
2023-05-01T05:28:14.253Z,17.16
2023-05-01T05:29:19.018Z,17.19
2023-05-01T05:30:21.830Z,17.20
2023-05-01T05:31:25.327Z,17.22
2023-05-01T05:32:28.755Z,17.25
2023-05-01T05:33:32.163Z,17.29
2023-05-01T05:34:34.605Z,17.32
2023-05-01T05:35:38.526Z,17.34
2023-05-01T05:36:40.921Z,17.39
2023-05-01T05:37:46.056Z,17.43
2023-05-01T05:38:48.730Z,17.46
2023-05-01T05:39:52.076Z,17.48
2023-05-01T05:40:55.183Z,17.52
2023-05-01T05:41:59.104Z,17.57
2023-05-01T05:43:01.784Z,17.64
2023-05-01T05:44:05.163Z,17.66
2023-05-01T05:45:10.566Z,17.72
2023-05-01T05:46:13.975Z,17.78
2023-05-01T05:47:16.419Z,17.82
2023-05-01T05:48:19.704Z,17.90
2023-05-01T05:49:22.235Z,17.94
2023-05-01T05:50:25.601Z,17.99
2023-05-01T05:51:29.280Z,18.06
2023-05-01T05:52:31.678Z,18.10
2023-05-01T05:53:35.009Z,18.17
2023-05-01T05:54:37.486Z,18.22
2023-05-01T05:55:41.251Z,18.29
2023-05-01T05:56:43.786Z,18.32
2023-05-01T05:57:47.609Z,18.43
2023-05-01T05:58:50.018Z,18.53
2023-05-01T05:59:54.716Z,18.61
2023-05-01T06:00:58.528Z,18.71
2023-05-01T06:02:02.172Z,18.78
2023-05-01T06:03:04.892Z,18.86
2023-05-01T06:04:08.608Z,18.92
2023-05-01T06:05:11.806Z,18.98
2023-05-01T06:06:15.474Z,19.06
2023-05-01T06:07:17.952Z,19.16
2023-05-01T06:08:22.744Z,19.24
2023-05-01T06:09:25.229Z,19.33
2023-05-01T06:10:28.520Z,19.41
2023-05-01T06:11:31.934Z,19.51
2023-05-01T06:12:37.570Z,19.56
2023-05-01T06:13:43.100Z,19.63
2023-05-01T06:14:45.495Z,19.69
2023-05-01T06:15:49.106Z,19.79
2023-05-01T06:16:52.965Z,19.91
2023-05-01T06:17:56.570Z,19.99
2023-05-01T06:18:59.117Z,19.99
2023-05-01T06:20:06.129Z,19.99
2023-05-01T06:21:08.506Z,19.96
2023-05-01T06:22:11.957Z,19.94
2023-05-01T06:23:15.421Z,19.93
2023-05-01T06:24:18.946Z,19.93
2023-05-01T06:25:21.356Z,19.94
2023-05-01T06:26:26.639Z,19.99
2023-05-01T06:27:29.069Z,20.06
2023-05-01T06:28:32.352Z,20.11
2023-05-01T06:29:34.785Z,20.16
2023-05-01T06:30:38.032Z,20.16
2023-05-01T06:31:41.106Z,20.19
2023-05-01T06:32:45.804Z,20.21
2023-05-01T06:33:48.428Z,20.21
2023-05-01T06:34:51.910Z,20.19
2023-05-01T06:35:54.857Z,20.17
2023-05-01T06:36:58.895Z,20.15
2023-05-01T06:38:01.378Z,20.13
2023-05-01T06:39:04.837Z,20.14
2023-05-01T06:40:08.453Z,20.13
2023-05-01T06:41:11.937Z,20.15
2023-05-01T06:42:16.345Z,20.13
2023-05-01T06:43:20.093Z,20.13
2023-05-01T06:44:22.564Z,20.13
2023-05-01T06:45:25.966Z,20.12
2023-05-01T06:46:28.418Z,20.10
2023-05-01T06:47:32.228Z,20.10
2023-05-01T06:48:36.111Z,20.09
2023-05-01T06:49:39.414Z,20.08
2023-05-01T06:50:42.784Z,20.09
2023-05-01T06:51:45.930Z,20.07
2023-05-01T06:52:49.390Z,20.08
2023-05-01T06:53:51.826Z,20.07
2023-05-01T06:54:55.172Z,20.06
2023-05-01T06:55:57.534Z,20.09
2023-05-01T06:57:01.476Z,20.15
2023-05-01T06:58:12.711Z,20.18
2023-05-01T06:59:26.429Z,20.17
2023-05-01T07:00:29.871Z,20.21
2023-05-01T07:01:35.294Z,20.25
2023-05-01T07:02:40.880Z,20.31
2023-05-01T07:03:44.973Z,20.37
2023-05-01T07:04:48.727Z,20.43
2023-05-01T07:05:51.083Z,20.50
2023-05-01T07:06:54.506Z,20.57
2023-05-01T07:08:01.176Z,20.58
2023-05-01T07:09:04.838Z,20.56
2023-05-01T07:10:08.279Z,20.57
2023-05-01T07:11:11.716Z,20.57
2023-05-01T07:12:15.170Z,20.59
2023-05-01T07:13:18.258Z,20.62
2023-05-01T07:14:21.737Z,20.65
2023-05-01T07:15:24.279Z,20.69
2023-05-01T07:16:27.979Z,20.72
2023-05-01T07:17:30.595Z,20.73
2023-05-01T07:18:34.895Z,20.74
2023-05-01T07:19:39.864Z,20.74
2023-05-01T07:20:43.200Z,20.73
2023-05-01T07:21:45.646Z,20.76
2023-05-01T07:22:49.369Z,20.75
2023-05-01T07:23:53.681Z,20.75
2023-05-01T07:24:56.348Z,20.74
2023-05-01T07:25:59.748Z,20.75
2023-05-01T07:27:02.197Z,20.76
2023-05-01T07:28:08.586Z,20.80
2023-05-01T07:29:11.860Z,20.86
2023-05-01T07:30:15.249Z,21.06
2023-05-01T07:31:17.765Z,21.33
2023-05-01T07:32:21.436Z,21.58
2023-05-01T07:33:25.955Z,21.80
2023-05-01T07:34:29.364Z,21.96
2023-05-01T07:35:33.157Z,22.09
2023-05-01T07:36:36.455Z,22.25
2023-05-01T07:37:38.936Z,22.36
2023-05-01T07:38:42.285Z,22.39
2023-05-01T07:39:45.563Z,22.35
2023-05-01T07:40:49.203Z,22.28
2023-05-01T07:41:51.648Z,22.23
2023-05-01T07:42:55.104Z,22.15
2023-05-01T07:43:59.019Z,22.07
2023-05-01T07:45:02.430Z,22.00
2023-05-01T07:46:05.658Z,21.93
2023-05-01T07:47:09.141Z,21.84
2023-05-01T07:48:11.697Z,21.76
2023-05-01T07:49:15.044Z,21.69
2023-05-01T07:50:18.533Z,21.63
2023-05-01T07:51:22.437Z,21.60
2023-05-01T07:52:26.326Z,21.60
2023-05-01T07:53:28.905Z,21.60
2023-05-01T07:54:32.905Z,21.65
2023-05-01T07:55:35.306Z,21.69
2023-05-01T07:56:38.748Z,21.78
2023-05-01T07:57:41.264Z,21.92
2023-05-01T07:58:44.917Z,22.11
2023-05-01T07:59:47.909Z,22.31
2023-05-01T08:00:51.492Z,22.45
2023-05-01T08:01:53.944Z,22.46
2023-05-01T08:02:57.392Z,22.43
2023-05-01T08:03:59.976Z,22.39
2023-05-01T08:05:04.260Z,22.32
2023-05-01T08:06:08.580Z,22.24
2023-05-01T08:07:12.324Z,22.14
2023-05-01T08:08:20.624Z,22.07
2023-05-01T08:09:24.416Z,22.01
2023-05-01T08:10:28.883Z,22.00
2023-05-01T08:11:33.608Z,22.02
2023-05-01T08:12:37.058Z,22.03
2023-05-01T08:13:40.801Z,22.06
2023-05-01T08:14:43.669Z,22.08
2023-05-01T08:15:48.817Z,22.10
2023-05-01T08:16:55.548Z,22.13
2023-05-01T08:17:58.057Z,22.13
2023-05-01T08:19:01.635Z,22.17
2023-05-01T08:20:04.593Z,22.25
2023-05-01T08:29:27.810Z,24.50
2023-05-01T08:30:31.753Z,24.83
2023-05-01T08:31:37.808Z,25.23
2023-05-01T08:32:40.416Z,25.65
2023-05-01T08:33:44.361Z,26.00
2023-05-01T08:34:46.738Z,26.25
2023-05-01T08:35:51.341Z,26.49
2023-05-01T08:37:54.418Z,26.68
2023-05-01T08:38:56.863Z,26.70
2023-05-01T08:40:00.212Z,26.71
2023-05-01T08:41:04.516Z,26.62
2023-05-01T08:42:07.268Z,26.55
2023-05-01T08:43:11.048Z,26.53
2023-05-01T08:44:14.874Z,26.59
2023-05-01T08:45:21.322Z,26.64
2023-05-01T08:46:30.546Z,26.73
2023-05-01T08:47:38.534Z,26.71
2023-05-01T08:48:44.517Z,26.62
2023-05-01T08:49:47.998Z,26.52
2023-05-01T08:50:52.231Z,26.39
2023-05-01T08:51:57.091Z,26.21
2023-05-01T08:53:03.484Z,26.08
2023-05-01T08:54:08.880Z,26.16
2023-05-01T08:55:14.510Z,26.44
2023-05-01T08:56:18.253Z,26.72
2023-05-01T08:57:23.078Z,26.97
2023-05-01T08:58:27.595Z,27.02
2023-05-01T08:59:32.742Z,26.91
2023-05-01T09:00:37.325Z,26.77
2023-05-01T09:01:42.375Z,26.58
2023-05-01T09:02:48.671Z,26.32
2023-05-01T09:03:53.905Z,26.09
2023-05-01T09:04:56.838Z,25.95
2023-05-01T09:06:01.365Z,25.84
2023-05-01T09:07:05.024Z,25.74
2023-05-01T09:08:09.787Z,25.65
2023-05-01T09:09:12.199Z,25.53
2023-05-01T09:10:18.933Z,25.35
2023-05-01T09:11:23.241Z,25.19
2023-05-01T09:12:27.743Z,25.06
2023-05-01T09:13:30.907Z,24.97
2023-05-01T09:14:34.967Z,24.96
2023-05-01T09:15:38.776Z,24.95
2023-05-01T09:16:41.732Z,24.93
2023-05-01T09:17:45.876Z,24.99
2023-05-01T09:18:49.622Z,24.97
2023-05-01T09:19:52.652Z,24.98
2023-05-01T09:20:56.351Z,25.02
2023-05-01T09:21:59.177Z,25.00
2023-05-01T09:23:02.673Z,25.04
2023-05-01T09:24:07.205Z,25.12
2023-05-01T09:25:11.801Z,25.20
2023-05-01T09:26:16.011Z,25.20
2023-05-01T09:27:19.708Z,25.16
2023-05-01T09:28:41.678Z,25.09
2023-05-01T09:29:47.453Z,25.16
2023-05-01T09:30:50.321Z,25.32
2023-05-01T09:31:53.845Z,25.63
2023-05-01T09:33:09.724Z,25.93
2023-05-01T09:34:13.161Z,26.10
2023-05-01T09:35:17.730Z,26.18
2023-05-01T09:36:21.122Z,26.17
2023-05-01T09:37:28.500Z,26.16
2023-05-01T09:38:32.960Z,26.28
2023-05-01T09:39:36.722Z,26.53
2023-05-01T09:40:40.263Z,26.77
2023-05-01T09:41:52.210Z,26.99
2023-05-01T09:42:56.878Z,27.19
2023-05-01T09:44:01.625Z,27.27
2023-05-01T09:45:05.479Z,27.31
2023-05-01T09:46:10.937Z,27.39
2023-05-01T09:47:14.093Z,27.32
2023-05-01T09:48:17.554Z,27.16
2023-05-01T09:49:19.978Z,27.01
2023-05-01T09:50:33.294Z,26.80
2023-05-01T09:51:37.003Z,26.65
2023-05-01T09:52:39.369Z,26.48
2023-05-01T09:53:42.685Z,26.29
2023-05-01T09:54:46.953Z,26.09
2023-05-01T09:56:02.274Z,25.79
2023-05-01T09:57:05.079Z,25.58
2023-05-01T09:58:08.438Z,25.49
2023-05-01T09:59:19.654Z,25.48
2023-05-01T10:00:23.470Z,25.50
2023-05-01T10:01:42.477Z,25.50
2023-05-01T10:02:47.781Z,25.54
2023-05-01T10:03:56.812Z,25.55
2023-05-01T10:04:59.946Z,25.62
2023-05-01T10:06:04.773Z,25.63
2023-05-01T10:07:14.668Z,25.58
2023-05-01T10:08:18.358Z,25.58
2023-05-01T10:09:29.591Z,25.55
2023-05-01T10:10:34.385Z,25.59
2023-05-01T10:11:49.756Z,25.61
2023-05-01T10:12:53.237Z,25.69
2023-05-01T10:14:10.454Z,25.74
2023-05-01T10:15:24.579Z,25.88
2023-05-01T10:16:30.714Z,25.95
2023-05-01T10:17:35.330Z,25.94
2023-05-01T10:18:38.177Z,25.91
2023-05-01T10:19:41.535Z,25.85
2023-05-01T10:20:44.884Z,25.76
2023-05-01T10:21:51.005Z,25.69
2023-05-01T10:23:00.786Z,25.64
2023-05-01T10:24:07.960Z,25.61
2023-05-01T10:25:13.134Z,25.62
2023-05-01T10:26:19.550Z,25.57
2023-05-01T10:27:25.607Z,25.52
2023-05-01T10:28:30.398Z,25.48
2023-05-01T10:29:36.683Z,25.42
2023-05-01T10:30:42.638Z,25.38
2023-05-01T10:31:46.051Z,25.33
2023-05-01T10:32:50.390Z,25.29
2023-05-01T10:33:53.285Z,25.23
2023-05-01T10:34:59.965Z,25.22
2023-05-01T10:36:04.078Z,25.19
2023-05-01T10:37:12.990Z,25.20
2023-05-01T10:38:25.098Z,25.18
2023-05-01T10:39:31.328Z,25.12
2023-05-01T10:40:48.746Z,25.03
2023-05-01T10:42:14.795Z,24.91
2023-05-01T10:43:19.601Z,24.81
2023-05-01T10:44:24.952Z,24.78
2023-05-01T10:45:31.046Z,24.80
2023-05-01T10:46:34.412Z,24.83
2023-05-01T10:47:48.939Z,24.85
2023-05-01T10:48:58.890Z,24.87
2023-05-01T10:50:05.421Z,24.87
2023-05-01T10:51:11.142Z,24.88
2023-05-01T10:52:15.917Z,24.89
2023-05-01T10:53:18.996Z,24.85
2023-05-01T10:54:29.639Z,24.79
2023-05-01T10:55:36.433Z,24.72
2023-05-01T10:56:44.778Z,24.68
2023-05-01T10:57:48.574Z,24.63
2023-05-01T10:58:59.601Z,24.57
2023-05-01T11:00:12.954Z,24.54
2023-05-01T11:01:36.702Z,24.48
2023-05-01T11:02:39.542Z,24.47
2023-05-01T11:03:43.394Z,24.45
2023-05-01T11:04:54.115Z,24.41
2023-05-01T11:06:08.389Z,24.31
2023-05-01T11:07:19.921Z,24.22
2023-05-01T11:08:31.887Z,24.14
2023-05-01T11:09:40.654Z,24.07
2023-05-01T11:10:43.723Z,23.97
2023-05-01T11:11:51.346Z,23.90
2023-05-01T11:12:57.022Z,23.79
2023-05-01T11:14:02.135Z,23.70
2023-05-01T11:15:08.427Z,23.61
2023-05-01T11:16:43.436Z,23.50
2023-05-01T11:17:46.511Z,23.39
2023-05-01T11:18:49.976Z,23.32
2023-05-01T11:19:52.744Z,23.29
2023-05-01T11:20:56.545Z,23.26
2023-05-01T11:21:59.184Z,23.23
2023-05-01T11:23:02.526Z,23.25
2023-05-01T11:24:05.567Z,23.25
2023-05-01T11:25:21.181Z,23.21
2023-05-01T11:26:23.731Z,23.21
2023-05-01T11:27:28.122Z,23.19
2023-05-01T11:28:33.253Z,23.17
2023-05-01T11:29:38.962Z,23.08
2023-05-01T11:30:43.275Z,22.96
2023-05-01T11:31:49.671Z,22.83
2023-05-01T11:32:52.722Z,22.69
2023-05-01T11:33:58.046Z,22.60
2023-05-01T11:35:00.978Z,22.44
2023-05-01T11:36:05.463Z,22.35
2023-05-01T11:37:08.149Z,22.27
2023-05-01T11:38:19.571Z,22.21
2023-05-01T11:39:23.635Z,22.11
2023-05-01T11:40:27.887Z,22.01
2023-05-01T11:41:31.854Z,21.91
2023-05-01T11:42:34.414Z,21.79
2023-05-01T11:43:51.773Z,21.70
2023-05-01T11:45:07.877Z,21.61
2023-05-01T11:46:11.321Z,21.45
2023-05-01T11:47:14.030Z,21.32
2023-05-01T11:48:17.728Z,21.24
2023-05-01T11:49:27.270Z,21.10
2023-05-01T11:50:35.713Z,21.01
2023-05-01T11:51:39.540Z,20.89
2023-05-01T11:52:43.604Z,20.85
2023-05-01T11:54:00.786Z,20.83
2023-05-01T11:55:04.200Z,20.81
2023-05-01T11:56:26.468Z,20.85
2023-05-01T11:57:30.614Z,20.88
2023-05-01T11:58:36.680Z,20.91
2023-05-01T11:59:40.702Z,20.96
2023-05-01T12:00:44.636Z,20.99
2023-05-01T12:01:48.381Z,21.05
2023-05-01T12:02:59.043Z,21.09
2023-05-01T12:04:03.162Z,21.13
2023-05-01T12:05:16.048Z,21.21
2023-05-01T12:06:19.552Z,21.26
2023-05-01T12:07:22.911Z,21.29
2023-05-01T12:08:28.504Z,21.33
2023-05-01T12:09:31.906Z,21.37
2023-05-01T12:10:35.995Z,21.43
2023-05-01T12:11:41.009Z,21.48
2023-05-01T12:12:43.713Z,21.52
2023-05-01T12:13:48.774Z,21.60
2023-05-01T12:14:53.259Z,21.65
2023-05-01T12:15:58.775Z,21.69
2023-05-01T12:17:03.672Z,21.73
2023-05-01T12:18:06.478Z,21.76
2023-05-01T12:19:12.213Z,21.82
2023-05-01T12:20:14.690Z,21.86
2023-05-01T12:21:19.395Z,21.89
2023-05-01T12:22:22.369Z,21.94
2023-05-01T12:23:33.513Z,21.96
2023-05-01T12:24:37.749Z,21.97
2023-05-01T12:25:53.616Z,21.98
2023-05-01T12:27:01.856Z,21.96
2023-05-01T12:28:10.971Z,21.92
2023-05-01T12:29:18.170Z,21.89
2023-05-01T12:30:27.256Z,21.82
2023-05-01T12:31:32.037Z,21.78
2023-05-01T12:32:34.789Z,21.74
2023-05-01T12:33:38.291Z,21.72
2023-05-01T12:34:41.940Z,21.68
2023-05-01T12:35:47.226Z,21.61
2023-05-01T12:36:55.182Z,21.54
2023-05-01T12:37:58.776Z,21.45
2023-05-01T12:39:03.769Z,21.42
2023-05-01T12:40:15.201Z,21.34
2023-05-01T12:41:17.622Z,21.27
2023-05-01T12:42:21.921Z,21.22
2023-05-01T12:43:32.614Z,21.14
2023-05-01T12:44:35.127Z,21.06
2023-05-01T12:45:42.794Z,21.06
2023-05-01T12:46:47.560Z,21.04
2023-05-01T12:47:51.258Z,21.01
2023-05-01T12:48:55.413Z,21.00
2023-05-01T12:50:03.674Z,20.98
2023-05-01T12:51:07.838Z,20.94
2023-05-01T12:52:10.887Z,20.92
2023-05-01T12:53:17.217Z,20.88
2023-05-01T12:54:21.320Z,20.85
2023-05-01T12:55:26.231Z,20.82
2023-05-01T12:56:29.127Z,20.78
2023-05-01T12:57:33.316Z,20.77
2023-05-01T12:58:37.139Z,20.76
2023-05-01T12:59:41.658Z,20.68
2023-05-01T13:00:54.199Z,20.56
2023-05-01T13:02:01.571Z,20.33
2023-05-01T13:03:06.225Z,20.12
2023-05-01T13:04:08.956Z,19.93
2023-05-01T13:05:13.382Z,19.75
2023-05-01T13:06:18.314Z,19.60
2023-05-01T13:07:21.244Z,19.42
2023-05-01T13:08:28.906Z,19.30
2023-05-01T13:09:32.527Z,19.13
2023-05-01T13:10:35.079Z,19.03
2023-05-01T13:11:39.852Z,18.97
2023-05-01T13:12:45.238Z,18.97
2023-05-01T13:13:50.774Z,18.99
2023-05-01T13:14:54.344Z,19.06
2023-05-01T13:16:13.259Z,19.12
2023-05-01T13:17:23.615Z,19.15
2023-05-01T13:18:27.572Z,19.16
2023-05-01T13:19:32.000Z,19.25
2023-05-01T13:20:39.047Z,19.32
2023-05-01T13:21:49.021Z,19.39
2023-05-01T13:22:51.686Z,19.43
2023-05-01T13:23:57.374Z,19.49
2023-05-01T13:25:00.341Z,19.45
2023-05-01T13:26:07.296Z,19.34
2023-05-01T13:27:10.145Z,19.13
2023-05-01T13:28:19.798Z,19.02
2023-05-01T13:29:24.657Z,18.94
2023-05-01T13:30:34.901Z,18.85
2023-05-01T13:31:43.968Z,18.79
2023-05-01T13:32:48.034Z,18.76
2023-05-01T13:33:53.622Z,18.80
2023-05-01T13:35:00.564Z,18.88
2023-05-01T13:36:11.246Z,18.98
2023-05-01T13:37:22.846Z,19.06
2023-05-01T13:38:25.436Z,19.16
2023-05-01T13:39:29.193Z,19.27
2023-05-01T13:40:34.919Z,19.35
2023-05-01T13:41:43.883Z,19.39
2023-05-01T13:42:48.367Z,19.46
2023-05-01T13:43:52.499Z,19.52
2023-05-01T13:44:57.626Z,19.57
2023-05-01T13:46:00.942Z,19.60
2023-05-01T13:47:06.115Z,19.65
2023-05-01T13:48:11.764Z,19.71
2023-05-01T13:49:14.948Z,19.75
2023-05-01T13:50:19.416Z,19.79
2023-05-01T13:51:23.866Z,19.83
2023-05-01T13:52:27.944Z,19.85
2023-05-01T13:53:30.777Z,19.86
2023-05-01T13:54:35.829Z,19.87
2023-05-01T13:55:41.022Z,19.87
2023-05-01T13:56:44.430Z,19.89
2023-05-01T13:57:46.998Z,19.92
2023-05-01T13:58:50.938Z,19.91
2023-05-01T13:59:54.341Z,19.92
2023-05-01T14:00:57.650Z,19.94
2023-05-01T14:02:01.139Z,19.93
2023-05-01T14:03:05.171Z,19.92
2023-05-01T14:04:11.399Z,19.92
2023-05-01T14:05:15.254Z,19.93
2023-05-01T14:06:19.912Z,19.93
2023-05-01T14:07:25.743Z,19.94
2023-05-01T14:08:31.203Z,19.93
2023-05-01T14:09:37.186Z,19.92
2023-05-01T14:10:40.684Z,19.91
2023-05-01T14:11:46.731Z,19.89
2023-05-01T14:12:52.062Z,19.87
2023-05-01T14:14:00.240Z,19.85
2023-05-01T14:15:03.465Z,19.86
2023-05-01T14:16:11.042Z,19.90
2023-05-01T14:17:14.144Z,19.88
2023-05-01T14:18:19.972Z,19.89
2023-05-01T14:19:24.597Z,19.89
2023-05-01T14:20:27.222Z,19.89
2023-05-01T14:21:32.045Z,19.89
2023-05-01T14:22:44.118Z,19.89
2023-05-01T14:23:47.555Z,19.88
2023-05-01T14:24:51.181Z,19.86
2023-05-01T14:25:54.557Z,19.86
2023-05-01T14:26:57.996Z,19.86
2023-05-01T14:28:02.993Z,19.85
2023-05-01T14:29:05.341Z,19.84
2023-05-01T14:30:20.522Z,19.83
2023-05-01T14:31:28.945Z,19.80
2023-05-01T14:32:38.368Z,19.76
2023-05-01T14:33:44.950Z,19.76
2023-05-01T14:34:48.342Z,19.74
2023-05-01T14:35:54.176Z,19.72